In Rescue
 
Open Full Screen Window  High Contrast Mode
November 19, 2019 5:55 PM GMT
Present Weather: Light Snow
Weather Information
Wind Direction
  ---
Wind Speed
  00 kt (0 mph)
Wind Gust
  00 kt (0 mph)
Altimeter
29.77 in
Visibility
1 1/2 SM
Temperature
00° C
32° F
Dewpoint
-01° C
30° F
Humidity
93%
1hr Rain Fall
00.02 in.
24hr Rain Fall
00.37 in.
Sky Condition
Overcast @ 300 ft
LIFR

METAR K6B0 191755Z AUTO 00000KT 1 1/2SM -SN OVC003 00/M01 A2977 RMK AO2 P0002 60025 T10021007 10000 21013

FAA Disclaimer: The data displayed is for advisory purposes only and is not to be used for flight planning or operations.